Time;durP1;ratioP1;P1;durP2;ratioP2;P2;SDS_P1;SDS_P2;PMS_P1;PMS_P2;Temp;Humidity;BMP_temperature;BMP_pressure;BME280_temperature;BME280_humidity;BME280_pressure;Samples;Min_cycle;Max_cycle;Signal;HPM_P1;HPM_P2
2022/08/01 00:01:50;;;;;;;3.10;1.92;;;18.40;99.90;;;;;;5056216;28;20525;-63
2022/08/01 00:04:16;;;;;;;1.98;1.77;;;18.40;99.90;;;;;;5058531;28;20110;-63
2022/08/01 00:06:42;;;;;;;2.00;1.70;;;18.40;99.90;;;;;;5061220;28;20505;-63
2022/08/01 00:09:07;;;;;;;4.38;1.90;;;18.40;99.90;;;;;;5055338;28;20071;-63
2022/08/01 00:11:33;;;;;;;3.67;2.10;;;18.40;99.90;;;;;;5061964;28;20059;-63
2022/08/01 00:13:59;;;;;;;2.55;1.73;;;18.30;99.90;;;;;;5057465;28;20068;-63
2022/08/01 00:16:24;;;;;;;5.40;1.98;;;18.40;99.90;;;;;;5060791;28;20049;-63
2022/08/01 00:18:51;;;;;;;2.47;1.67;;;18.30;99.90;;;;;;5059764;28;20048;-63
2022/08/01 00:21:17;;;;;;;2.42;1.80;;;18.30;99.90;;;;;;5059652;28;20076;-62
2022/08/01 00:23:45;;;;;;;2.28;1.55;;;18.30;99.90;;;;;;5055305;28;20044;-62
2022/08/01 00:26:12;;;;;;;2.08;1.40;;;18.30;99.90;;;;;;5061931;28;20095;-62
2022/08/01 00:28:37;;;;;;;6.13;2.10;;;18.30;99.90;;;;;;5056372;28;20444;-63
2022/08/01 00:31:03;;;;;;;7.82;2.30;;;18.30;99.90;;;;;;5059269;28;20037;-63
2022/08/01 00:33:29;;;;;;;4.70;2.15;;;18.30;99.90;;;;;;5058852;28;20467;-63
2022/08/01 00:35:54;;;;;;;4.57;2.10;;;18.30;99.90;;;;;;5056699;28;20090;-63
2022/08/01 00:38:20;;;;;;;2.40;2.20;;;18.30;99.90;;;;;;5060900;28;20174;-63
2022/08/01 00:40:46;;;;;;;6.07;2.70;;;18.30;99.90;;;;;;5058012;28;20048;-63
2022/08/01 00:43:11;;;;;;;3.65;2.65;;;18.30;99.90;;;;;;5054352;28;20109;-63
2022/08/01 00:45:37;;;;;;;3.92;2.42;;;18.30;99.90;;;;;;5059632;28;20513;-63
2022/08/01 00:48:03;;;;;;;6.68;2.92;;;18.30;99.90;;;;;;5063813;28;20033;-63
2022/08/01 00:50:29;;;;;;;5.78;3.13;;;18.30;99.90;;;;;;5057620;28;20080;-63
2022/08/01 00:52:56;;;;;;;4.35;3.45;;;18.20;99.90;;;;;;5059627;28;20052;-62
2022/08/01 00:55:22;;;;;;;5.57;3.03;;;18.30;99.90;;;;;;5054654;28;20043;-62
2022/08/01 00:57:49;;;;;;;5.57;3.33;;;18.20;99.90;;;;;;5057425;28;20040;-62
2022/08/01 01:00:14;;;;;;;5.03;2.75;;;18.20;99.90;;;;;;5057733;28;20049;-62
2022/08/01 01:02:40;;;;;;;5.28;2.72;;;18.20;99.90;;;;;;5056820;28;20877;-62
2022/08/01 01:05:06;;;;;;;7.00;3.17;;;18.10;99.90;;;;;;5055181;28;20507;-62
2022/08/01 01:07:39;;;;;;;5.18;2.10;;;18.10;99.90;;;;;;5059161;28;20041;-62
2022/08/01 01:10:15;;;;;;;4.57;2.20;;;18.10;99.90;;;;;;5057045;28;20125;-62
2022/08/01 01:13:05;;;;;;;4.53;1.63;;;18.20;99.90;;;;;;5056227;28;20052;-62
2022/08/01 01:15:43;;;;;;;2.97;1.85;;;18.10;99.90;;;;;;5060314;28;20048;-62
2022/08/01 01:18:17;;;;;;;2.97;1.40;;;18.00;99.90;;;;;;5059377;28;20124;-62
2022/08/01 01:20:45;;;;;;;5.65;1.52;;;18.00;99.90;;;;;;5057112;28;20036;-63
2022/08/01 01:23:48;;;;;;;6.10;1.48;;;17.90;99.90;;;;;;5056834;28;20560;-63
2022/08/01 01:26:13;;;;;;;;;;;18.00;99.90;;;;;;5059016;28;20049;-63
2022/08/01 01:28:51;;;;;;;3.80;1.50;;;17.90;99.90;;;;;;5058574;28;19920;-63
2022/08/01 01:31:20;;;;;;;5.68;1.73;;;17.90;99.90;;;;;;5056546;28;20041;-63
2022/08/01 01:33:47;;;;;;;4.80;1.70;;;17.90;99.90;;;;;;5055515;28;20091;-63
2022/08/01 01:36:16;;;;;;;6.03;1.65;;;17.90;99.90;;;;;;5060252;28;20196;-63
2022/08/01 01:38:44;;;;;;;6.35;1.83;;;17.70;99.90;;;;;;5056893;28;20051;-63
2022/08/01 01:41:16;;;;;;;6.18;2.03;;;17.90;99.90;;;;;;5053442;28;20045;-63
2022/08/01 01:43:43;;;;;;;5.03;1.70;;;17.90;99.90;;;;;;5054779;28;20101;-62
2022/08/01 01:46:11;;;;;;;3.78;1.50;;;17.80;99.90;;;;;;5057250;28;20044;-62
2022/08/01 01:48:38;;;;;;;12.55;2.20;;;17.70;99.90;;;;;;5059015;28;20116;-62
2022/08/01 01:51:05;;;;;;;3.33;1.13;;;17.70;99.90;;;;;;5053618;28;20464;-62
2022/08/01 01:53:34;;;;;;;5.75;1.75;;;17.70;99.90;;;;;;5058479;28;20086;-62
2022/08/01 01:56:01;;;;;;;2.90;1.50;;;17.70;99.90;;;;;;5057017;28;20459;-62
2022/08/01 01:58:28;;;;;;;7.43;1.67;;;17.70;99.90;;;;;;5056786;28;20533;-62
2022/08/01 02:00:56;;;;;;;1.25;1.02;;;17.80;99.90;;;;;;5054502;28;20064;-63
2022/08/01 02:03:23;;;;;;;3.53;1.30;;;17.70;99.90;;;;;;5058587;28;20488;-63
2022/08/01 02:05:51;;;;;;;2.40;1.13;;;17.70;99.90;;;;;;5057848;28;20483;-63
2022/08/01 02:08:17;;;;;;;6.05;1.42;;;17.70;99.90;;;;;;5056090;28;20090;-63
2022/08/01 02:11:17;;;;;;;8.88;1.70;;;17.70;99.90;;;;;;5058245;28;20403;-63
2022/08/01 02:13:34;;;;;;;7.63;2.30;;;17.70;99.90;;;;;;5055947;28;20388;-62
2022/08/01 02:16:01;;;;;;;10.82;2.63;;;17.60;99.90;;;;;;5059496;28;20120;-62
2022/08/01 02:18:27;;;;;;;8.80;2.20;;;17.60;99.90;;;;;;5059159;28;20053;-63
2022/08/01 02:20:54;;;;;;;7.22;2.10;;;17.60;99.90;;;;;;5061438;28;20040;-63
2022/08/01 02:23:22;;;;;;;4.57;2.17;;;17.60;99.90;;;;;;5056971;28;20041;-63
2022/08/01 02:25:50;;;;;;;16.52;3.15;;;17.50;99.90;;;;;;5059530;28;20036;-63
2022/08/01 02:28:29;;;;;;;6.18;2.22;;;17.50;99.90;;;;;;5070537;28;20041;-63
2022/08/01 02:31:00;;;;;;;7.25;2.55;;;17.50;99.90;;;;;;5071438;28;20071;-63
2022/08/01 02:33:51;;;;;;;6.80;2.17;;;17.40;99.90;;;;;;5069692;28;20044;-63
2022/08/01 02:36:19;;;;;;;5.07;2.50;;;17.40;99.90;;;;;;5061297;28;20112;-63
2022/08/01 02:38:46;;;;;;;11.07;2.30;;;17.40;99.90;;;;;;5059642;28;20033;-63
2022/08/01 02:41:18;;;;;;;8.68;3.05;;;17.40;99.90;;;;;;5060389;28;20613;-63
2022/08/01 02:43:49;;;;;;;10.02;2.80;;;17.40;99.90;;;;;;5063033;28;20048;-63
2022/08/01 02:46:23;;;;;;;7.97;2.92;;;17.50;99.90;;;;;;5063357;28;20074;-63
2022/08/01 02:48:52;;;;;;;8.20;2.80;;;17.40;99.90;;;;;;5057493;28;20496;-63
2022/08/01 02:51:21;;;;;;;6.50;2.95;;;17.40;99.90;;;;;;5061339;28;20742;-63
2022/08/01 02:53:48;;;;;;;10.23;2.47;;;17.40;99.90;;;;;;5060862;28;20111;-63
2022/08/01 02:56:15;;;;;;;10.75;3.80;;;17.30;99.90;;;;;;5062872;28;20115;-63
2022/08/01 02:58:41;;;;;;;6.30;2.42;;;17.40;99.90;;;;;;5057806;28;20061;-63
2022/08/01 03:01:09;;;;;;;10.75;3.60;;;17.30;99.90;;;;;;5058041;28;20107;-63
2022/08/01 03:03:36;;;;;;;7.75;2.80;;;17.30;99.90;;;;;;5060137;28;20040;-63
2022/08/01 03:06:03;;;;;;;7.15;2.83;;;17.40;99.90;;;;;;5061970;28;20430;-63
2022/08/01 03:08:31;;;;;;;14.88;3.63;;;17.40;99.90;;;;;;5059225;28;20049;-63
2022/08/01 03:10:59;;;;;;;9.60;3.22;;;17.30;99.90;;;;;;5056744;28;20040;-63
2022/08/01 03:13:26;;;;;;;11.70;3.58;;;17.30;99.90;;;;;;5057616;28;20041;-63
2022/08/01 03:15:53;;;;;;;6.93;2.70;;;17.30;99.90;;;;;;5056342;28;20071;-63
2022/08/01 03:18:21;;;;;;;5.50;3.42;;;17.30;99.90;;;;;;5062253;28;20090;-63
2022/08/01 03:20:48;;;;;;;12.38;2.97;;;17.20;99.90;;;;;;5058420;28;20052;-63
2022/08/01 03:23:16;;;;;;;6.05;3.10;;;17.20;99.90;;;;;;5062198;28;20116;-63
2022/08/01 03:25:44;;;;;;;8.60;3.15;;;17.20;99.90;;;;;;5060876;28;20125;-63
2022/08/01 03:28:13;;;;;;;5.63;2.80;;;17.20;99.90;;;;;;5054725;28;20060;-63
2022/08/01 03:30:40;;;;;;;8.75;2.67;;;17.20;99.90;;;;;;5060016;28;20051;-63
2022/08/01 03:33:06;;;;;;;11.32;3.03;;;17.20;99.90;;;;;;5055068;28;20101;-62
2022/08/01 03:35:39;;;;;;;4.43;2.47;;;17.10;99.90;;;;;;5060399;28;20049;-62
2022/08/01 03:38:10;;;;;;;7.00;3.25;;;17.20;99.90;;;;;;5058097;28;20110;-62
2022/08/01 03:40:38;;;;;;;10.65;2.83;;;17.00;99.90;;;;;;5059683;28;20119;-62
2022/08/01 03:43:10;;;;;;;9.32;2.63;;;17.10;99.90;;;;;;5059587;28;20404;-63
2022/08/01 03:45:45;;;;;;;11.70;3.13;;;17.10;99.90;;;;;;5060127;28;20037;-63
2022/08/01 03:48:15;;;;;;;10.07;2.90;;;17.10;99.90;;;;;;5056583;28;20585;-63
2022/08/01 03:50:43;;;;;;;9.75;2.70;;;17.00;99.90;;;;;;5059933;28;20064;-63
2022/08/01 03:53:11;;;;;;;9.75;2.40;;;16.90;99.90;;;;;;5059118;28;20072;-63
2022/08/01 03:55:38;;;;;;;13.27;3.08;;;17.00;99.90;;;;;;5059929;28;20048;-63
2022/08/01 03:58:05;;;;;;;6.63;2.25;;;17.00;99.90;;;;;;5055178;28;20072;-62
2022/08/01 04:00:31;;;;;;;11.20;3.00;;;16.90;99.90;;;;;;5059807;28;20052;-62
2022/08/01 04:02:58;;;;;;;10.35;2.47;;;16.90;99.90;;;;;;5062095;28;20115;-62
2022/08/01 04:05:24;;;;;;;4.97;2.95;;;16.90;99.90;;;;;;5060440;28;20116;-62
2022/08/01 04:07:56;;;;;;;7.88;2.55;;;16.80;99.90;;;;;;5061480;28;20560;-62
2022/08/01 04:10:25;;;;;;;15.90;3.35;;;16.80;99.90;;;;;;5056931;28;20515;-62
2022/08/01 04:12:51;;;;;;;9.18;2.60;;;16.80;99.90;;;;;;5058301;28;20063;-62
2022/08/01 04:15:18;;;;;;;8.82;2.45;;;16.80;99.90;;;;;;5057889;28;20329;-62
2022/08/01 04:17:43;;;;;;;8.65;2.72;;;16.80;99.90;;;;;;5058413;28;20044;-62
2022/08/01 04:20:10;;;;;;;16.98;3.85;;;16.80;99.90;;;;;;5058543;28;20164;-62
2022/08/01 04:22:37;;;;;;;12.38;3.03;;;16.70;99.90;;;;;;5059771;28;20053;-62
2022/08/01 04:25:09;;;;;;;10.32;2.58;;;16.80;99.90;;;;;;5060859;28;20032;-62
2022/08/01 04:27:38;;;;;;;10.85;3.00;;;16.80;99.90;;;;;;5057543;28;20040;-62
2022/08/01 04:30:06;;;;;;;12.18;2.83;;;16.80;99.90;;;;;;5056388;28;20495;-62
2022/08/01 04:32:34;;;;;;;8.40;2.83;;;16.70;99.90;;;;;;5061086;28;20044;-63
2022/08/01 04:35:04;;;;;;;16.70;3.33;;;16.70;99.90;;;;;;5059929;28;20049;-62
2022/08/01 04:37:30;;;;;;;15.35;3.60;;;16.80;99.90;;;;;;5059702;28;20052;-62
2022/08/01 04:39:58;;;;;;;10.65;2.75;;;16.70;99.90;;;;;;5054422;28;20385;-62
2022/08/01 04:42:23;;;;;;;13.18;2.97;;;16.70;99.90;;;;;;5059786;28;20041;-62
2022/08/01 04:44:49;;;;;;;14.05;2.92;;;16.80;99.90;;;;;;5056808;28;20032;-62
2022/08/01 04:47:15;;;;;;;13.77;3.28;;;16.70;99.90;;;;;;5057103;28;20051;-62
2022/08/01 04:49:41;;;;;;;13.75;2.88;;;16.70;99.90;;;;;;5053743;28;20419;-62
2022/08/01 04:52:07;;;;;;;15.75;2.85;;;16.70;99.90;;;;;;5056036;28;20040;-62
2022/08/01 04:54:38;;;;;;;9.63;2.95;;;16.60;99.90;;;;;;5057646;28;20407;-62
2022/08/01 04:57:05;;;;;;;13.80;3.58;;;16.70;99.90;;;;;;5056417;28;21011;-62
2022/08/01 04:59:41;;;;;;;10.10;2.83;;;16.70;99.90;;;;;;5059103;28;20057;-62
2022/08/01 05:02:18;;;;;;;16.08;2.85;;;16.70;99.90;;;;;;5058716;28;20063;-62
2022/08/01 05:04:45;;;;;;;12.55;2.83;;;16.70;99.90;;;;;;5060602;28;20123;-62
2022/08/01 05:07:11;;;;;;;13.18;3.40;;;16.70;99.90;;;;;;5057671;28;20063;-62
2022/08/01 05:09:38;;;;;;;9.20;3.17;;;16.70;99.90;;;;;;5056769;28;20045;-63
2022/08/01 05:12:05;;;;;;;9.18;2.22;;;16.70;99.90;;;;;;5059674;28;20029;-63
2022/08/01 05:14:32;;;;;;;9.43;2.88;;;16.70;99.90;;;;;;5057145;28;20055;-63
2022/08/01 05:17:03;;;;;;;11.40;2.90;;;16.70;99.90;;;;;;5056579;28;20517;-63
2022/08/01 05:19:34;;;;;;;15.15;3.33;;;16.70;99.90;;;;;;5057834;28;20128;-63
2022/08/01 05:22:01;;;;;;;18.08;3.65;;;16.70;99.90;;;;;;5057552;28;20411;-63
2022/08/01 05:24:46;;;;;;;18.27;3.78;;;16.80;99.90;;;;;;5057672;28;20045;-63
2022/08/01 05:27:13;;;;;;;13.50;3.25;;;16.70;99.90;;;;;;5058896;28;20479;-63
2022/08/01 05:29:39;;;;;;;13.52;3.53;;;16.70;99.90;;;;;;5056387;28;20081;-63
2022/08/01 05:32:05;;;;;;;11.93;3.00;;;16.70;99.90;;;;;;5058226;28;20353;-63
2022/08/01 05:34:30;;;;;;;13.52;3.42;;;16.70;99.90;;;;;;5056249;28;20049;-63
2022/08/01 05:36:56;;;;;;;11.90;2.97;;;16.70;99.90;;;;;;5057107;28;20646;-63
2022/08/01 05:39:21;;;;;;;8.93;2.90;;;16.70;99.90;;;;;;5058125;28;20036;-63
2022/08/01 05:41:47;;;;;;;16.25;3.55;;;16.70;99.90;;;;;;5055585;28;20037;-63
2022/08/01 05:44:13;;;;;;;16.50;3.47;;;16.70;99.90;;;;;;5055007;28;20132;-63
2022/08/01 05:46:39;;;;;;;11.02;3.20;;;16.70;99.90;;;;;;5054576;28;20115;-63
2022/08/01 05:49:05;;;;;;;9.07;2.70;;;16.70;99.90;;;;;;5055703;28;20049;-63
2022/08/01 05:51:31;;;;;;;12.35;3.25;;;16.70;99.90;;;;;;5056464;28;20048;-63
2022/08/01 05:53:57;;;;;;;15.15;3.10;;;16.70;99.90;;;;;;5058252;28;20412;-64
2022/08/01 05:56:23;;;;;;;11.10;2.75;;;16.70;99.90;;;;;;5054752;28;20037;-63
2022/08/01 05:58:50;;;;;;;11.43;2.58;;;16.70;99.90;;;;;;5055756;28;20060;-63
2022/08/01 06:01:17;;;;;;;11.57;2.67;;;16.70;99.90;;;;;;5054526;28;20080;-63
2022/08/01 06:03:43;;;;;;;14.63;3.88;;;16.70;99.90;;;;;;5058813;28;20445;-63
2022/08/01 06:06:08;;;;;;;15.18;3.17;;;16.80;99.90;;;;;;5052900;28;20116;-63
2022/08/01 06:08:34;;;;;;;13.25;3.33;;;16.70;99.90;;;;;;5055927;28;20060;-63
2022/08/01 06:11:01;;;;;;;10.45;3.38;;;16.80;99.90;;;;;;5056530;28;20052;-63
2022/08/01 06:13:26;;;;;;;9.30;2.78;;;16.70;99.90;;;;;;5070493;28;20049;-63
2022/08/01 06:15:52;;;;;;;9.80;3.22;;;16.80;99.90;;;;;;5054153;28;20052;-63
2022/08/01 06:18:17;;;;;;;18.73;3.28;;;16.80;99.90;;;;;;5050818;28;20033;-63
2022/08/01 06:20:43;;;;;;;12.45;3.65;;;16.80;99.90;;;;;;5055964;28;20036;-63
2022/08/01 06:23:09;;;;;;;9.23;3.00;;;16.90;99.90;;;;;;5055634;28;20484;-63
2022/08/01 06:25:35;;;;;;;9.50;2.83;;;16.80;99.90;;;;;;5057709;28;20044;-63
2022/08/01 06:28:00;;;;;;;9.40;2.38;;;16.80;99.90;;;;;;5050624;28;20076;-63
2022/08/01 06:30:26;;;;;;;10.73;2.03;;;16.80;99.90;;;;;;5055881;28;20053;-63
2022/08/01 06:32:52;;;;;;;11.55;2.90;;;16.80;99.90;;;;;;5058475;28;20048;-63
2022/08/01 06:35:18;;;;;;;10.52;2.22;;;16.90;99.90;;;;;;5054376;28;20053;-63
2022/08/01 06:37:47;;;;;;;7.28;2.10;;;16.90;99.90;;;;;;5058218;28;20403;-63
2022/08/01 06:40:13;;;;;;;9.45;2.65;;;17.00;99.90;;;;;;5057690;28;20098;-63
2022/08/01 06:42:39;;;;;;;8.57;2.83;;;17.00;99.90;;;;;;5056591;28;20547;-63
2022/08/01 06:45:07;;;;;;;12.50;2.67;;;17.00;99.90;;;;;;5053274;28;20041;-63
2022/08/01 06:47:33;;;;;;;6.43;2.42;;;17.00;99.90;;;;;;5052172;28;20072;-63
2022/08/01 06:49:58;;;;;;;11.00;2.47;;;17.00;99.90;;;;;;5058344;28;20065;-63
2022/08/01 06:52:24;;;;;;;14.02;2.63;;;17.00;99.90;;;;;;5058757;28;20499;-63
2022/08/01 06:54:50;;;;;;;10.15;2.30;;;17.00;99.90;;;;;;5055501;28;20037;-63
2022/08/01 06:57:16;;;;;;;13.30;2.88;;;17.00;99.90;;;;;;5049962;28;20134;-63
2022/08/01 06:59:42;;;;;;;9.43;2.95;;;17.00;99.90;;;;;;5058877;28;20083;-63
2022/08/01 07:02:08;;;;;;;11.70;2.83;;;17.10;99.90;;;;;;5055545;28;20487;-63
2022/08/01 07:04:34;;;;;;;9.45;2.38;;;17.10;99.90;;;;;;5055731;28;20185;-63
2022/08/01 07:06:59;;;;;;;6.60;1.65;;;17.10;99.90;;;;;;5057817;28;20028;-63
2022/08/01 07:09:25;;;;;;;10.45;2.05;;;17.10;99.90;;;;;;5058386;28;20139;-63
2022/08/01 07:11:52;;;;;;;10.02;2.35;;;17.20;99.90;;;;;;5059456;28;20415;-64
2022/08/01 07:14:18;;;;;;;13.73;2.50;;;17.20;99.90;;;;;;5055535;28;20037;-63
2022/08/01 07:16:44;;;;;;;8.55;2.00;;;17.20;99.90;;;;;;5055903;28;20438;-63
2022/08/01 07:19:10;;;;;;;11.13;2.65;;;17.40;99.90;;;;;;5060049;28;20048;-63
2022/08/01 07:21:35;;;;;;;6.60;1.90;;;17.40;99.90;;;;;;5059740;28;20048;-63
2022/08/01 07:24:01;;;;;;;6.43;1.98;;;17.50;99.90;;;;;;5062465;28;20472;-63
2022/08/01 07:26:27;;;;;;;5.60;1.80;;;17.50;99.90;;;;;;5062257;28;20041;-63
2022/08/01 07:28:53;;;;;;;11.70;2.30;;;17.60;99.90;;;;;;5062220;28;20072;-63
2022/08/01 07:31:19;;;;;;;6.10;2.00;;;17.50;99.90;;;;;;5062223;28;20078;-63
2022/08/01 07:33:44;;;;;;;12.05;1.75;;;17.60;99.90;;;;;;5061440;28;20398;-63
2022/08/01 07:36:10;;;;;;;10.50;2.20;;;17.60;99.90;;;;;;5058183;28;20052;-63
2022/08/01 07:38:36;;;;;;;8.07;1.90;;;17.60;99.90;;;;;;5061423;28;20040;-63
2022/08/01 07:41:02;;;;;;;6.65;1.83;;;17.60;99.90;;;;;;5059213;28;20040;-63
2022/08/01 07:43:28;;;;;;;10.02;2.22;;;17.70;99.90;;;;;;5058323;28;20434;-63
2022/08/01 07:45:54;;;;;;;7.25;2.40;;;17.70;99.90;;;;;;5058536;28;20051;-63
2022/08/01 07:48:23;;;;;;;12.45;2.30;;;17.80;99.90;;;;;;5063451;28;20139;-63
2022/08/01 07:50:50;;;;;;;7.68;1.95;;;17.80;99.90;;;;;;5057315;28;20048;-63
2022/08/01 07:53:15;;;;;;;7.60;2.15;;;17.90;99.90;;;;;;5056581;28;20040;-63
2022/08/01 07:55:41;;;;;;;10.18;2.55;;;18.00;99.90;;;;;;5066446;28;20185;-63
2022/08/01 07:58:07;;;;;;;4.85;1.52;;;18.10;99.90;;;;;;5056800;28;20068;-65
2022/08/01 08:00:32;;;;;;;9.20;2.20;;;18.20;99.90;;;;;;5060445;28;20041;-63
2022/08/01 08:02:59;;;;;;;7.78;1.52;;;18.20;99.90;;;;;;5052122;28;20048;-66
2022/08/01 08:05:25;;;;;;;7.38;2.33;;;18.30;99.90;;;;;;5059570;28;20515;-63
2022/08/01 08:07:51;;;;;;;8.35;2.33;;;18.30;99.90;;;;;;5053372;28;20088;-63
2022/08/01 08:10:16;;;;;;;8.82;1.83;;;18.40;99.90;;;;;;5069127;28;20036;-63
2022/08/01 08:12:42;;;;;;;8.20;2.22;;;18.40;99.90;;;;;;5062417;28;20044;-63
2022/08/01 08:15:08;;;;;;;5.50;1.90;;;18.40;99.90;;;;;;5061048;28;20025;-64
2022/08/01 08:17:35;;;;;;;8.82;1.92;;;18.40;99.90;;;;;;5059075;28;20047;-58
2022/08/01 08:20:02;;;;;;;9.93;1.80;;;18.40;99.90;;;;;;5059379;28;20072;-61
2022/08/01 08:22:28;;;;;;;9.27;2.03;;;18.50;99.90;;;;;;5063192;28;20049;-60
2022/08/01 08:24:53;;;;;;;7.75;2.30;;;18.60;99.90;;;;;;5054402;28;20047;-60
2022/08/01 08:27:19;;;;;;;8.20;1.98;;;18.60;99.90;;;;;;5055859;28;20127;-60
2022/08/01 08:29:44;;;;;;;5.85;1.58;;;18.60;99.90;;;;;;5060096;28;20048;-60
2022/08/01 08:32:10;;;;;;;6.50;1.60;;;18.50;99.90;;;;;;5060833;28;20082;-64
2022/08/01 08:34:36;;;;;;;6.00;1.35;;;18.40;99.90;;;;;;5039084;28;20045;-59
2022/08/01 08:37:02;;;;;;;6.53;1.70;;;18.50;99.90;;;;;;5060262;28;20041;-59
2022/08/01 08:39:29;;;;;;;7.63;1.70;;;18.50;99.90;;;;;;5062112;28;20044;-59
2022/08/01 08:41:56;;;;;;;5.18;1.48;;;18.50;99.90;;;;;;5057113;28;20041;-62
2022/08/01 08:44:21;;;;;;;5.10;1.38;;;18.50;99.90;;;;;;5059010;28;20041;-63
2022/08/01 08:46:50;;;;;;;5.75;1.90;;;18.50;99.90;;;;;;5059252;28;20553;-63
2022/08/01 08:49:19;;;;;;;9.07;1.67;;;18.50;99.90;;;;;;5064667;28;20522;-63
2022/08/01 08:51:48;;;;;;;9.68;1.83;;;18.40;99.90;;;;;;5057443;28;20040;-63
2022/08/01 08:54:15;;;;;;;10.43;1.48;;;18.50;99.90;;;;;;5055934;28;20067;-63
2022/08/01 08:56:42;;;;;;;7.93;1.73;;;18.50;99.90;;;;;;5064892;28;20514;-63
2022/08/01 08:59:08;;;;;;;7.55;1.92;;;18.60;99.90;;;;;;5048162;28;20059;-63
2022/08/01 09:01:34;;;;;;;6.40;1.40;;;18.60;99.90;;;;;;5047463;28;20381;-63
2022/08/01 09:04:02;;;;;;;9.40;1.50;;;18.70;99.90;;;;;;5048203;28;20049;-63
2022/08/01 09:06:29;;;;;;;5.32;1.35;;;18.70;99.90;;;;;;5053381;28;20043;-63
2022/08/01 09:08:55;;;;;;;6.38;1.45;;;18.80;99.90;;;;;;5059780;28;20043;-68
2022/08/01 09:11:21;;;;;;;7.10;1.30;;;18.80;99.90;;;;;;5056249;28;20056;-62
2022/08/01 09:14:03;;;;;;;6.85;1.60;;;18.90;99.90;;;;;;5063580;28;20479;-62
2022/08/01 09:16:30;;;;;;;7.60;1.52;;;18.90;99.90;;;;;;5058471;28;20594;-63
2022/08/01 09:19:10;;;;;;;4.95;1.30;;;18.80;99.90;;;;;;5062119;28;20052;-62
2022/08/01 09:21:37;;;;;;;8.93;1.60;;;18.80;99.90;;;;;;5052662;28;20137;-63
2022/08/01 09:24:05;;;;;;;7.38;1.88;;;18.70;99.90;;;;;;5049447;28;20044;-62
2022/08/01 09:26:36;;;;;;;9.15;1.73;;;18.80;99.90;;;;;;5056990;28;20059;-63
2022/08/01 09:29:05;;;;;;;3.88;1.20;;;18.70;99.90;;;;;;5060619;28;20112;-63
2022/08/01 09:31:41;;;;;;;6.40;1.52;;;18.80;99.90;;;;;;5055084;28;20075;-64
2022/08/01 09:34:08;;;;;;;6.30;1.85;;;18.90;99.90;;;;;;5053906;28;20179;-63
2022/08/01 09:36:51;;;;;;;6.35;1.95;;;18.80;99.90;;;;;;5055033;28;20048;-62
2022/08/01 09:39:19;;;;;;;5.82;1.30;;;18.80;99.90;;;;;;5059222;28;20044;-63
2022/08/01 09:41:46;;;;;;;3.20;1.65;;;18.90;99.90;;;;;;5066051;28;20586;-63
2022/08/01 09:44:12;;;;;;;7.10;1.45;;;18.90;99.90;;;;;;5056624;28;20044;-63
2022/08/01 09:46:53;;;;;;;9.27;1.98;;;18.90;99.90;;;;;;5053578;28;20041;-63
2022/08/01 09:49:36;;;;;;;6.63;1.52;;;18.90;99.90;;;;;;5053309;28;20068;-63
2022/08/01 09:52:31;;;;;;;4.43;1.30;;;18.80;99.90;;;;;;5053427;28;20041;-61
2022/08/01 09:55:02;;;;;;;7.93;1.77;;;18.70;99.90;;;;;;5047580;28;20055;-61
2022/08/01 09:57:29;;;;;;;4.65;1.27;;;18.70;99.90;;;;;;5052488;28;20059;-61
2022/08/01 09:59:56;;;;;;;7.13;1.42;;;18.70;99.90;;;;;;5056800;28;20052;-61
2022/08/01 10:02:36;;;;;;;8.38;1.90;;;18.80;99.90;;;;;;5059362;28;20445;-61
2022/08/01 10:05:05;;;;;;;6.30;1.58;;;18.90;99.90;;;;;;5056288;28;20049;-62
2022/08/01 10:07:30;;;;;;;10.35;1.75;;;19.00;99.90;;;;;;5055212;28;20132;-61
2022/08/01 10:10:12;;;;;;;5.18;1.17;;;19.00;99.90;;;;;;5058803;28;20123;-62
2022/08/01 10:12:39;;;;;;;6.65;1.67;;;19.00;99.90;;;;;;5050877;28;20439;-62
2022/08/01 10:15:06;;;;;;;4.28;1.58;;;18.90;99.90;;;;;;5057808;28;20049;-62
2022/08/01 10:17:33;;;;;;;8.82;1.55;;;19.00;99.90;;;;;;5051564;28;20048;-61
2022/08/01 10:20:01;;;;;;;4.40;1.52;;;19.10;99.90;;;;;;5051486;28;20067;-62
2022/08/01 10:22:29;;;;;;;9.70;1.95;;;19.20;99.90;;;;;;5049145;28;20123;-61
2022/08/01 10:24:56;;;;;;;10.30;1.40;;;19.20;99.90;;;;;;5053811;28;20044;-62
2022/08/01 10:27:24;;;;;;;5.32;1.38;;;19.30;99.90;;;;;;5054274;28;20102;-62
2022/08/01 10:29:56;;;;;;;6.38;1.15;;;19.40;99.90;;;;;;5055846;28;20094;-62
2022/08/01 10:32:22;;;;;;;;;;;19.40;99.90;;;;;;5056803;28;20047;-62
2022/08/01 10:34:49;;;;;;;8.27;2.13;;;19.50;99.90;;;;;;5056645;28;19920;-62
2022/08/01 10:37:17;;;;;;;2.15;1.25;;;19.50;99.90;;;;;;5056605;28;20049;-62
2022/08/01 10:39:42;;;;;;;3.55;1.13;;;19.60;99.90;;;;;;5059417;28;20119;-62
2022/08/01 10:42:11;;;;;;;5.30;1.33;;;19.70;99.90;;;;;;5055874;28;20108;-63
2022/08/01 10:44:38;;;;;;;4.90;1.13;;;19.60;99.90;;;;;;5057631;28;20057;-63
2022/08/01 10:47:10;;;;;;;5.38;1.55;;;19.70;99.90;;;;;;5058948;28;20405;-63
2022/08/01 10:49:48;;;;;;;6.97;1.63;;;19.70;99.90;;;;;;5056343;28;20071;-63
2022/08/01 10:52:17;;;;;;;4.50;1.77;;;19.80;99.90;;;;;;5060145;28;20059;-63
2022/08/01 10:54:44;;;;;;;3.97;1.40;;;19.90;99.90;;;;;;5056113;28;20115;-60
2022/08/01 10:57:11;;;;;;;8.10;1.08;;;19.80;99.90;;;;;;5053756;28;20514;-62
2022/08/01 10:59:48;;;;;;;6.85;1.13;;;19.70;99.90;;;;;;5066531;28;20491;-62
2022/08/01 11:02:28;;;;;;;5.57;1.25;;;19.60;99.90;;;;;;5058014;28;20040;-61
2022/08/01 11:04:58;;;;;;;7.72;1.42;;;19.70;99.90;;;;;;5058547;28;20435;-61
2022/08/01 11:07:45;;;;;;;6.35;1.02;;;19.70;99.90;;;;;;5053010;28;20888;-62
2022/08/01 11:10:54;;;;;;;4.38;1.77;;;19.80;99.90;;;;;;5055601;28;20124;-63
2022/08/01 11:13:57;;;;;;;3.35;1.05;;;19.70;99.90;;;;;;5002551;28;20045;-62
2022/08/01 11:16:36;;;;;;;5.55;1.30;;;19.60;99.90;;;;;;5054977;28;20124;-62
2022/08/01 11:19:03;;;;;;;4.88;1.05;;;19.60;99.90;;;;;;5057326;28;20051;-62
2022/08/01 11:21:51;;;;;;;2.60;0.98;;;19.70;99.90;;;;;;5052250;28;20377;-61
2022/08/01 11:24:51;;;;;;;11.95;2.17;;;19.80;99.90;;;;;;5054928;28;20073;-63
2022/08/01 11:27:29;;;;;;;2.35;1.00;;;19.80;99.90;;;;;;5058187;28;20446;-62
2022/08/01 11:30:10;;;;;;;6.15;1.30;;;19.80;99.90;;;;;;5053673;28;20037;-62
2022/08/01 11:32:50;;;;;;;6.65;1.23;;;19.90;99.90;;;;;;5055829;28;20052;-61
2022/08/01 11:35:16;;;;;;;2.67;0.88;;;19.90;99.90;;;;;;5060832;28;20040;-62
2022/08/01 11:37:42;;;;;;;3.47;1.20;;;19.90;99.90;;;;;;5058092;28;20404;-62
2022/08/01 11:40:16;;;;;;;5.70;1.08;;;19.80;99.90;;;;;;5057176;28;20636;-62
2022/08/01 11:42:42;;;;;;;1.60;0.93;;;20.00;99.90;;;;;;5064687;28;20040;-62
2022/08/01 11:45:11;;;;;;;4.22;1.30;;;19.90;99.90;;;;;;5052981;28;20381;-62
2022/08/01 11:47:48;;;;;;;10.43;1.80;;;19.90;99.90;;;;;;5063655;28;20440;-62
2022/08/01 11:50:35;;;;;;;3.30;1.08;;;19.90;99.90;;;;;;5057855;28;20047;-65
2022/08/01 11:53:03;;;;;;;5.15;1.20;;;20.00;99.90;;;;;;5057194;28;20457;-63
2022/08/01 11:55:30;;;;;;;6.47;1.00;;;20.00;99.90;;;;;;5067113;28;20640;-65
2022/08/01 11:58:06;;;;;;;2.75;1.20;;;20.00;99.90;;;;;;5064957;28;20051;-66
2022/08/01 12:00:33;;;;;;;4.25;1.10;;;20.10;99.90;;;;;;5056865;28;20407;-59
2022/08/01 12:03:04;;;;;;;8.38;1.17;;;20.00;99.90;;;;;;5058153;28;20131;-60
2022/08/01 12:05:33;;;;;;;3.03;1.23;;;20.10;99.90;;;;;;5062669;28;20079;-61
2022/08/01 12:08:00;;;;;;;3.35;1.23;;;20.20;99.90;;;;;;5055431;28;20064;-61
2022/08/01 12:10:32;;;;;;;3.53;1.33;;;20.20;99.90;;;;;;5067096;28;20115;-61
2022/08/01 12:13:01;;;;;;;;;;;20.20;99.90;;;;;;5065459;28;20503;-61
2022/08/01 12:15:35;;;;;;;3.65;0.60;;;20.30;99.90;;;;;;5062210;28;19973;-62
2022/08/01 12:18:06;;;;;;;6.40;1.55;;;20.30;99.90;;;;;;5063896;28;20044;-61
2022/08/01 12:20:37;;;;;;;6.25;1.40;;;20.40;99.90;;;;;;5066716;28;20572;-61
2022/08/01 12:23:07;;;;;;;6.23;1.07;;;20.40;99.90;;;;;;5063208;28;20033;-61
2022/08/01 12:25:34;;;;;;;4.10;1.10;;;20.50;99.90;;;;;;5059387;28;20037;-60
2022/08/01 12:28:04;;;;;;;7.30;1.73;;;20.50;99.90;;;;;;5062087;28;20067;-61
2022/08/01 12:30:34;;;;;;;6.30;1.63;;;20.50;99.90;;;;;;5059874;28;20051;-64
2022/08/01 12:33:02;;;;;;;4.95;1.15;;;20.50;99.90;;;;;;5055883;28;20048;-64
2022/08/01 12:35:29;;;;;;;7.97;1.20;;;20.60;99.90;;;;;;5057569;28;20543;-64
2022/08/01 12:38:03;;;;;;;5.03;1.00;;;20.60;99.90;;;;;;5061813;28;20045;-64
2022/08/01 12:40:39;;;;;;;5.18;1.25;;;20.50;99.90;;;;;;5057123;28;20094;-64
2022/08/01 12:43:07;;;;;;;3.35;1.05;;;20.40;99.90;;;;;;5058594;28;20059;-64
2022/08/01 12:45:42;;;;;;;2.30;0.90;;;20.60;99.90;;;;;;5060079;28;20492;-63
2022/08/01 12:48:13;;;;;;;5.75;1.17;;;20.50;99.90;;;;;;5058299;28;20040;-64
2022/08/01 12:50:41;;;;;;;4.70;1.30;;;20.60;99.90;;;;;;5057937;28;20090;-64
2022/08/01 12:53:08;;;;;;;6.30;1.10;;;20.70;99.90;;;;;;5056349;28;20040;-64
2022/08/01 12:55:47;;;;;;;2.20;0.80;;;20.70;99.90;;;;;;5059818;28;20040;-64